Time;durP1;ratioP1;P1;durP2;ratioP2;P2;SDS_P1;SDS_P2;PMS_P1;PMS_P2;Temp;Humidity;BMP_temperature;BMP_pressure;BME280_temperature;BME280_humidity;BME280_pressure;Samples;Min_cycle;Max_cycle;Signal;HPM_P1;HPM_P2
2023/03/04 00:01:10;;;;;;;39.73;6.50;;;14.00;53.00;;;;;;5048338;28;20283;-90
2023/03/04 00:03:39;;;;;;;29.73;5.97;;;14.00;53.00;;;;;;5048029;28;20307;-92
2023/03/04 00:06:06;;;;;;;62.90;8.33;;;14.00;53.00;;;;;;5047406;28;20287;-90
2023/03/04 00:08:33;;;;;;;56.87;7.93;;;14.00;53.00;;;;;;5045543;28;20206;-89
2023/03/04 00:11:00;;;;;;;57.20;8.27;;;14.00;53.00;;;;;;5044744;28;20236;-90
2023/03/04 00:13:27;;;;;;;46.80;7.23;;;14.00;53.00;;;;;;5046640;28;20282;-90
2023/03/04 00:15:55;;;;;;;58.57;7.90;;;14.00;53.00;;;;;;5047251;28;20770;-93
2023/03/04 00:18:23;;;;;;;48.60;7.37;;;14.00;53.00;;;;;;5047708;28;20204;-90
2023/03/04 00:20:50;;;;;;;35.80;6.33;;;14.00;53.00;;;;;;5047028;28;20238;-90
2023/03/04 00:23:17;;;;;;;34.87;6.70;;;14.00;53.10;;;;;;5048042;28;20701;-89
2023/03/04 00:25:44;;;;;;;42.90;7.17;;;14.10;53.20;;;;;;5048222;28;20990;-90
2023/03/04 00:28:11;;;;;;;38.33;6.60;;;14.00;53.10;;;;;;5048420;28;20351;-90
2023/03/04 00:30:41;;;;;;;57.17;8.50;;;14.00;53.00;;;;;;5050470;28;20212;-89
2023/03/04 00:33:08;;;;;;;40.43;6.57;;;14.00;53.10;;;;;;5050837;28;20645;-90
2023/03/04 00:35:36;;;;;;;35.40;6.60;;;13.90;53.00;;;;;;5050919;28;20206;-90
2023/03/04 00:38:03;;;;;;;60.60;8.60;;;14.00;53.10;;;;;;5049021;28;20562;-89
2023/03/04 00:40:30;;;;;;;39.90;7.07;;;14.00;53.10;;;;;;5047056;28;20576;-89
2023/03/04 00:45:46;;;;;;;58.17;8.23;;;14.00;53.10;;;;;;5038789;28;20214;-90
2023/03/04 00:48:13;;;;;;;44.33;7.60;;;14.00;53.70;;;;;;5048593;28;20671;-90
2023/03/04 00:50:42;;;;;;;48.87;7.13;;;13.90;53.00;;;;;;5049448;28;20192;-89
2023/03/04 00:53:09;;;;;;;55.37;8.20;;;13.90;53.00;;;;;;5048392;28;20660;-90
2023/03/04 00:55:36;;;;;;;52.37;7.73;;;14.00;53.10;;;;;;5036199;28;20686;-90
2023/03/04 00:58:03;;;;;;;43.47;7.30;;;14.00;53.10;;;;;;5050022;28;20575;-90
2023/03/04 01:00:30;;;;;;;38.30;6.43;;;13.90;53.00;;;;;;5049429;28;20196;-90
2023/03/04 01:02:57;;;;;;;41.13;7.17;;;13.90;53.00;;;;;;5050487;28;20219;-90
2023/03/04 01:05:24;;;;;;;43.93;7.33;;;13.90;53.10;;;;;;5049869;28;20205;-90
2023/03/04 01:07:52;;;;;;;86.30;10.13;;;14.00;53.10;;;;;;5046466;28;20204;-91
2023/03/04 01:10:25;;;;;;;49.37;7.40;;;13.90;53.00;;;;;;5049438;28;20203;-89
2023/03/04 01:12:55;;;;;;;32.97;6.23;;;13.90;53.00;;;;;;5048561;28;20307;-90
2023/03/04 01:15:22;;;;;;;34.93;6.33;;;13.90;53.10;;;;;;5041523;28;20299;-90
2023/03/04 01:17:49;;;;;;;45.10;7.27;;;14.00;53.20;;;;;;5048036;28;20212;-91
2023/03/04 01:20:19;;;;;;;42.93;7.47;;;13.90;53.00;;;;;;5050627;28;20334;-90
2023/03/04 01:22:46;;;;;;;52.07;7.40;;;13.90;53.00;;;;;;5048565;28;20230;-91
2023/03/04 01:25:15;;;;;;;50.17;7.63;;;14.00;53.20;;;;;;5050888;28;20207;-90
2023/03/04 01:27:42;;;;;;;60.20;7.77;;;14.00;53.20;;;;;;5047499;28;20227;-89
2023/03/04 01:30:10;;;;;;;37.10;6.43;;;13.90;53.10;;;;;;5048864;28;20215;-90
2023/03/04 01:32:37;;;;;;;89.33;10.37;;;13.90;53.10;;;;;;5044149;28;20218;-90
2023/03/04 01:35:07;;;;;;;46.97;7.20;;;13.90;53.10;;;;;;5049479;28;20206;-90
2023/03/04 01:37:34;;;;;;;46.93;6.87;;;13.90;53.10;;;;;;5048666;28;20200;-90
2023/03/04 01:40:05;;;;;;;67.30;8.80;;;13.90;53.10;;;;;;5048567;28;20196;-90
2023/03/04 01:42:35;;;;;;;39.00;6.53;;;13.90;53.10;;;;;;5048579;28;20202;-90
2023/03/04 01:45:03;;;;;;;41.87;6.73;;;13.80;53.10;;;;;;5050210;28;20208;-90
2023/03/04 01:47:35;;;;;;;39.03;6.63;;;13.90;53.10;;;;;;5047160;28;20258;-90
2023/03/04 01:50:11;;;;;;;43.90;7.10;;;13.90;53.20;;;;;;5047842;28;20237;-90
2023/03/04 01:52:39;;;;;;;43.07;7.07;;;13.90;53.10;;;;;;5048393;28;20199;-90
2023/03/04 01:55:10;;;;;;;43.27;6.73;;;13.90;53.10;;;;;;5049090;28;20283;-90
2023/03/04 01:57:39;;;;;;;58.57;7.73;;;13.90;53.10;;;;;;5047595;28;20200;-91
2023/03/04 02:00:20;;;;;;;39.70;7.13;;;13.90;53.10;;;;;;5047199;28;20283;-90
2023/03/04 02:02:47;;;;;;;45.30;7.50;;;13.90;53.20;;;;;;5048997;28;20327;-89
2023/03/04 02:05:15;;;;;;;41.93;6.93;;;13.90;53.20;;;;;;5049339;28;20212;-90
2023/03/04 02:07:42;;;;;;;37.83;7.10;;;13.90;53.20;;;;;;5049140;28;20200;-89
2023/03/04 02:10:11;;;;;;;45.57;7.23;;;13.90;53.20;;;;;;5044926;28;20379;-89
2023/03/04 02:12:39;;;;;;;53.43;7.83;;;13.90;53.20;;;;;;5048328;28;20200;-89
2023/03/04 02:15:08;;;;;;;43.67;6.53;;;14.00;53.20;;;;;;5048427;28;20208;-90
2023/03/04 02:17:35;;;;;;;40.90;6.83;;;13.90;53.20;;;;;;5048931;28;20217;-90
2023/03/04 02:20:13;;;;;;;41.07;6.83;;;13.90;53.20;;;;;;5048665;28;20219;-89
2023/03/04 02:23:03;;;;;;;39.40;6.50;;;13.90;53.20;;;;;;5041784;28;20200;-92
2023/03/04 02:25:35;;;;;;;60.00;8.43;;;13.90;53.20;;;;;;5047549;28;20246;-90
2023/03/04 02:28:04;;;;;;;33.23;6.17;;;13.90;53.20;;;;;;5043215;28;20211;-90
2023/03/04 02:30:31;;;;;;;51.97;7.50;;;13.90;53.20;;;;;;5048567;28;20212;-91
2023/03/04 02:32:58;;;;;;;42.30;6.87;;;13.90;53.20;;;;;;5048787;28;20209;-91
2023/03/04 02:35:27;;;;;;;67.77;9.20;;;13.90;53.20;;;;;;5046966;28;20234;-93
2023/03/04 02:37:55;;;;;;;60.47;8.60;;;13.90;53.20;;;;;;5049152;28;20203;-93
2023/03/04 02:40:28;;;;;;;43.73;7.40;;;14.00;53.30;;;;;;5048321;28;20261;-92
2023/03/04 02:42:55;;;;;;;40.47;6.70;;;13.90;53.20;;;;;;5047477;28;20654;-91
2023/03/04 02:45:35;;;;;;;33.87;6.27;;;13.90;53.20;;;;;;5049276;28;20197;-93
2023/03/04 02:48:02;;;;;;;65.50;8.33;;;13.90;53.20;;;;;;5042556;28;20210;-91
2023/03/04 02:50:33;;;;;;;47.00;7.57;;;14.00;53.30;;;;;;5048040;28;20200;-91
2023/03/04 02:53:00;;;;;;;43.00;6.83;;;14.00;53.30;;;;;;5047029;28;20667;-93
2023/03/04 02:55:27;;;;;;;48.47;7.33;;;13.90;53.20;;;;;;5048218;28;20211;-90
2023/03/04 02:57:54;;;;;;;49.10;7.27;;;13.90;53.20;;;;;;5047961;28;20215;-91
2023/03/04 03:00:21;;;;;;;54.83;7.60;;;13.90;53.20;;;;;;5048965;28;20210;-91
2023/03/04 03:02:49;;;;;;;38.53;6.53;;;13.90;53.20;;;;;;5047265;28;20227;-89
2023/03/04 03:05:16;;;;;;;45.57;7.10;;;13.90;53.80;;;;;;5047823;28;20524;-89
2023/03/04 03:07:43;;;;;;;41.10;6.70;;;13.90;53.20;;;;;;5048578;28;20632;-89
2023/03/04 03:10:12;;;;;;;47.60;7.40;;;13.90;53.20;;;;;;5059777;28;20211;-90
2023/03/04 03:12:38;;;;;;;34.97;6.33;;;13.90;53.20;;;;;;5049805;28;20214;-90
2023/03/04 03:15:06;;;;;;;42.37;7.13;;;13.90;53.20;;;;;;5047200;28;20219;-88
2023/03/04 03:17:33;;;;;;;50.27;7.47;;;13.90;53.20;;;;;;5045227;28;20204;-90
2023/03/04 03:20:02;;;;;;;40.27;6.20;;;13.90;53.20;;;;;;5038129;28;20216;-90
2023/03/04 03:22:29;;;;;;;50.77;7.30;;;13.90;53.20;;;;;;5041934;28;20206;-89
2023/03/04 03:24:56;;;;;;;40.60;6.93;;;13.90;53.20;;;;;;5047460;28;20227;-89
2023/03/04 03:27:23;;;;;;;37.77;6.87;;;13.90;53.20;;;;;;5048152;28;20207;-91
2023/03/04 03:29:49;;;;;;;51.70;7.23;;;13.90;53.20;;;;;;5044579;28;20808;-90
2023/03/04 03:32:17;;;;;;;40.73;7.00;;;13.90;53.20;;;;;;5047287;28;20584;-90
2023/03/04 03:34:43;;;;;;;36.63;6.63;;;13.90;53.20;;;;;;5047314;28;20638;-89
2023/03/04 03:37:12;;;;;;;40.40;6.77;;;13.90;53.20;;;;;;5046240;28;20192;-90
2023/03/04 03:39:39;;;;;;;35.27;6.53;;;13.90;53.20;;;;;;5047602;28;20208;-89
2023/03/04 03:42:06;;;;;;;39.03;6.70;;;13.90;53.20;;;;;;5047570;28;20200;-89
2023/03/04 03:44:33;;;;;;;43.67;7.00;;;13.90;53.20;;;;;;5047071;28;20765;-89
2023/03/04 03:47:00;;;;;;;38.93;6.97;;;13.90;53.20;;;;;;5046517;28;20210;-90
2023/03/04 03:49:27;;;;;;;40.23;6.83;;;13.90;53.20;;;;;;5041393;28;20764;-90
2023/03/04 03:51:54;;;;;;;39.37;6.83;;;14.00;53.30;;;;;;5039946;28;20237;-90
2023/03/04 03:54:22;;;;;;;40.90;6.70;;;13.90;53.20;;;;;;5046641;28;20202;-90
2023/03/04 03:56:52;;;;;;;38.57;6.43;;;13.90;53.20;;;;;;5047206;28;20691;-90
2023/03/04 03:59:19;;;;;;;38.80;6.93;;;13.90;53.20;;;;;;5046644;28;20214;-90
2023/03/04 04:01:45;;;;;;;44.93;7.17;;;13.90;53.20;;;;;;5046674;28;20382;-90
2023/03/04 04:04:12;;;;;;;45.30;6.97;;;13.90;53.20;;;;;;5047040;28;20306;-90
2023/03/04 04:06:39;;;;;;;43.63;6.77;;;13.90;53.80;;;;;;5047671;28;20202;-89
2023/03/04 04:09:06;;;;;;;38.73;6.27;;;13.90;53.80;;;;;;5047080;28;20679;-90
2023/03/04 04:11:35;;;;;;;58.27;7.97;;;14.00;53.30;;;;;;5047093;28;20684;-90
2023/03/04 04:14:02;;;;;;;49.03;7.47;;;14.00;53.30;;;;;;5045413;28;20254;-88
2023/03/04 04:16:29;;;;;;;52.93;8.03;;;13.90;53.20;;;;;;5041316;28;20204;-89
2023/03/04 04:18:56;;;;;;;56.00;7.93;;;13.90;53.20;;;;;;5044645;28;20537;-90
2023/03/04 04:21:24;;;;;;;53.00;7.43;;;13.90;53.20;;;;;;5046261;28;20341;-91
2023/03/04 04:23:51;;;;;;;36.83;6.73;;;13.90;53.20;;;;;;5045489;28;20219;-90
2023/03/04 04:26:18;;;;;;;38.30;6.93;;;14.00;53.30;;;;;;5046662;28;20226;-89
2023/03/04 04:28:46;;;;;;;90.00;10.77;;;14.00;53.30;;;;;;5044983;28;20295;-89
2023/03/04 04:31:13;;;;;;;40.03;6.33;;;13.90;53.20;;;;;;5046170;28;20200;-90
2023/03/04 04:33:40;;;;;;;40.33;6.90;;;13.90;53.20;;;;;;5045528;28;20204;-90
2023/03/04 04:36:09;;;;;;;44.60;7.30;;;13.90;53.20;;;;;;5045148;28;20595;-90
2023/03/04 04:38:36;;;;;;;49.30;7.77;;;13.90;53.20;;;;;;5046912;28;20212;-90
2023/03/04 04:41:04;;;;;;;36.73;6.20;;;14.00;53.30;;;;;;5046431;28;20211;-91
2023/03/04 04:43:30;;;;;;;39.53;6.50;;;13.90;53.20;;;;;;5045574;28;20203;-90
2023/03/04 04:46:00;;;;;;;55.67;8.07;;;13.90;53.20;;;;;;5045312;28;20642;-90
2023/03/04 04:48:27;;;;;;;58.17;8.17;;;13.90;53.20;;;;;;5046231;28;20399;-90
2023/03/04 04:50:55;;;;;;;49.43;7.30;;;13.90;53.20;;;;;;5045811;28;20224;-90
2023/03/04 04:53:22;;;;;;;37.20;6.63;;;13.90;53.20;;;;;;5044495;28;20666;-93
2023/03/04 04:55:49;;;;;;;40.87;6.80;;;13.90;53.20;;;;;;5045300;28;20208;-91
2023/03/04 04:58:16;;;;;;;58.17;8.10;;;13.90;53.20;;;;;;5044596;28;20197;-90
2023/03/04 05:00:43;;;;;;;41.17;6.63;;;13.90;53.20;;;;;;5046789;28;20642;-92
2023/03/04 05:03:12;;;;;;;41.87;7.13;;;13.90;53.20;;;;;;5047923;28;20645;-93
2023/03/04 05:05:39;;;;;;;39.67;7.07;;;13.90;53.30;;;;;;5047626;28;20239;-92
2023/03/04 05:08:06;;;;;;;33.00;6.30;;;13.90;53.20;;;;;;5046005;28;20304;-94
2023/03/04 05:10:33;;;;;;;49.13;7.33;;;13.90;53.20;;;;;;5046944;28;20247;-91
2023/03/04 05:13:00;;;;;;;39.17;7.10;;;13.90;53.20;;;;;;5048233;28;20204;-91
2023/03/04 05:15:31;;;;;;;38.57;6.40;;;13.90;53.20;;;;;;5050363;28;20219;-89
2023/03/04 05:17:57;;;;;;;37.07;6.00;;;13.90;53.20;;;;;;5051043;28;20940;-90
2023/03/04 05:20:26;;;;;;;37.43;6.83;;;13.90;53.20;;;;;;5051108;28;20595;-93
2023/03/04 05:22:53;;;;;;;47.60;7.40;;;13.90;53.20;;;;;;5048285;28;20541;-92
2023/03/04 05:25:20;;;;;;;38.27;6.73;;;13.90;53.20;;;;;;5050547;28;20240;-94
2023/03/04 05:27:47;;;;;;;46.90;7.17;;;13.90;53.20;;;;;;5050139;28;20723;-93
2023/03/04 05:30:14;;;;;;;35.23;6.57;;;13.90;53.20;;;;;;5049294;28;20226;-90
2023/03/04 05:32:41;;;;;;;61.40;8.43;;;14.00;53.30;;;;;;5048934;28;20208;-91
2023/03/04 05:35:09;;;;;;;39.87;7.20;;;13.90;53.20;;;;;;5049285;28;20961;-93
2023/03/04 05:37:37;;;;;;;32.73;6.20;;;13.90;53.20;;;;;;5047913;28;20617;-93
2023/03/04 05:40:05;;;;;;;45.63;7.23;;;13.90;53.20;;;;;;5051434;28;20547;-91
2023/03/04 05:42:32;;;;;;;41.93;6.80;;;13.90;53.20;;;;;;5051295;28;20207;-94
2023/03/04 05:44:58;;;;;;;32.73;6.10;;;13.90;53.20;;;;;;5051533;28;20703;-94
2023/03/04 05:47:25;;;;;;;42.37;6.50;;;13.90;53.20;;;;;;5049630;28;20724;-90
2023/03/04 05:49:53;;;;;;;46.83;7.60;;;13.80;53.20;;;;;;5050063;28;20291;-90
2023/03/04 05:52:20;;;;;;;39.97;7.03;;;13.90;53.30;;;;;;5050670;28;20196;-90
2023/03/04 05:54:48;;;;;;;44.43;7.10;;;13.90;53.30;;;;;;5050885;28;20208;-90
2023/03/04 05:57:16;;;;;;;36.80;6.53;;;13.90;53.30;;;;;;5050915;28;20191;-92
2023/03/04 05:59:43;;;;;;;43.73;6.97;;;13.90;53.20;;;;;;5050522;28;20196;-91
2023/03/04 06:02:10;;;;;;;40.13;6.67;;;13.90;53.30;;;;;;5049982;28;20271;-90
2023/03/04 06:04:37;;;;;;;43.50;7.00;;;13.90;53.20;;;;;;5039835;28;20215;-90
2023/03/04 06:07:03;;;;;;;40.67;6.87;;;13.90;53.30;;;;;;5049548;28;20276;-89
2023/03/04 06:09:30;;;;;;;31.23;6.33;;;13.90;53.30;;;;;;5048317;28;20610;-90
2023/03/04 06:11:59;;;;;;;46.70;7.50;;;13.90;53.30;;;;;;5035351;28;20192;-90
2023/03/04 06:14:26;;;;;;;37.43;6.53;;;13.90;53.30;;;;;;5034872;28;20196;-90
2023/03/04 06:16:53;;;;;;;45.80;7.73;;;13.90;53.30;;;;;;5048986;28;20648;-90
2023/03/04 06:19:20;;;;;;;43.87;7.33;;;13.80;53.20;;;;;;5048820;28;20287;-89
2023/03/04 06:21:47;;;;;;;55.77;8.10;;;13.90;53.30;;;;;;5047194;28;20315;-90
2023/03/04 06:24:14;;;;;;;37.10;6.53;;;14.00;53.30;;;;;;5045033;28;20674;-91
2023/03/04 06:26:41;;;;;;;43.43;7.37;;;13.90;53.30;;;;;;5048300;28;20200;-90
2023/03/04 06:29:09;;;;;;;55.80;8.27;;;13.90;53.30;;;;;;5052772;28;20302;-89
2023/03/04 06:31:36;;;;;;;43.47;6.73;;;13.90;53.30;;;;;;5057881;28;20207;-89
2023/03/04 06:34:03;;;;;;;44.03;7.13;;;13.90;53.30;;;;;;5053594;28;20211;-91
2023/03/04 06:36:32;;;;;;;66.23;8.53;;;13.90;53.30;;;;;;5048228;28;20223;-90
2023/03/04 06:39:02;;;;;;;38.77;6.50;;;13.90;53.30;;;;;;5049287;28;20216;-90
2023/03/04 06:41:30;;;;;;;53.17;8.23;;;13.90;53.30;;;;;;5047584;28;20204;-90
2023/03/04 06:43:58;;;;;;;42.27;7.20;;;13.80;53.20;;;;;;5048280;28;20207;-90
2023/03/04 06:46:26;;;;;;;52.30;7.63;;;13.90;53.30;;;;;;5047940;28;20826;-90
2023/03/04 06:48:53;;;;;;;55.50;8.20;;;13.90;53.30;;;;;;5045638;28;20222;-90
2023/03/04 06:51:20;;;;;;;41.40;6.53;;;13.90;53.30;;;;;;5046719;28;20628;-90
2023/03/04 06:53:47;;;;;;;37.87;6.63;;;13.90;53.30;;;;;;5048517;28;20211;-91
2023/03/04 06:56:15;;;;;;;32.87;6.03;;;13.90;53.30;;;;;;5047905;28;20219;-90
2023/03/04 06:58:43;;;;;;;41.07;6.87;;;13.90;53.30;;;;;;5047794;28;20202;-90
2023/03/04 07:01:15;;;;;;;33.77;6.30;;;13.90;53.30;;;;;;5043394;28;20544;-90
2023/03/04 07:03:44;;;;;;;64.17;8.37;;;13.90;53.30;;;;;;5045877;28;20208;-92
2023/03/04 07:06:11;;;;;;;55.47;8.17;;;13.80;53.20;;;;;;5046500;28;20266;-89
2023/03/04 07:08:43;;;;;;;40.93;6.67;;;13.90;53.30;;;;;;5048034;28;20822;-93
2023/03/04 07:11:10;;;;;;;38.87;7.03;;;13.90;53.20;;;;;;5049728;28;20219;-90
2023/03/04 07:13:38;;;;;;;55.93;7.80;;;13.90;53.30;;;;;;5047552;28;20655;-94
2023/03/04 07:16:05;;;;;;;66.00;8.73;;;13.90;53.30;;;;;;5047385;28;20207;-93
2023/03/04 07:18:37;;;;;;;50.93;7.97;;;13.90;53.30;;;;;;5048643;28;20223;-94
2023/03/04 07:21:07;;;;;;;48.93;7.33;;;13.80;53.20;;;;;;5045799;28;20700;-91
2023/03/04 07:23:35;;;;;;;54.37;7.93;;;13.90;53.30;;;;;;5048106;28;20308;-92
2023/03/04 07:26:05;;;;;;;41.70;6.90;;;13.80;53.20;;;;;;5047785;28;20317;-93
2023/03/04 07:28:32;;;;;;;57.97;8.07;;;13.90;53.30;;;;;;5045879;28;20634;-92
2023/03/04 07:31:09;;;;;;;40.60;6.17;;;13.90;53.30;;;;;;5045659;28;20207;-92
2023/03/04 07:33:37;;;;;;;42.07;6.83;;;13.90;53.30;;;;;;5047004;28;20239;-92
2023/03/04 07:36:06;;;;;;;51.50;7.57;;;13.80;53.20;;;;;;5045180;28;20208;-90
2023/03/04 07:38:33;;;;;;;54.00;7.73;;;13.90;53.30;;;;;;5042845;28;20204;-92
2023/03/04 07:41:00;;;;;;;46.30;7.07;;;13.90;53.30;;;;;;5048686;28;20707;-92
2023/03/04 07:43:27;;;;;;;40.00;6.50;;;13.80;53.20;;;;;;5047802;28;20207;-91
2023/03/04 07:46:00;;;;;;;42.33;6.90;;;13.90;53.30;;;;;;5048867;28;20299;-90
2023/03/04 07:48:27;;;;;;;43.67;7.07;;;13.90;53.40;;;;;;5047651;28;20671;-90
2023/03/04 07:51:05;;;;;;;42.10;7.17;;;13.80;53.30;;;;;;5048397;28;20298;-92
2023/03/04 07:53:32;;;;;;;74.60;9.73;;;13.80;53.30;;;;;;5046042;28;20199;-91
2023/03/04 07:55:59;;;;;;;70.43;9.13;;;13.80;53.30;;;;;;5028389;28;20200;-93
2023/03/04 07:58:33;;;;;;;34.27;6.67;;;13.80;53.30;;;;;;5031800;28;20641;-90
2023/03/04 08:01:00;;;;;;;45.33;6.97;;;13.80;53.30;;;;;;5028266;28;20208;-91
2023/03/04 08:03:29;;;;;;;45.80;7.33;;;13.80;53.30;;;;;;5042305;28;20662;-93
2023/03/04 08:05:56;;;;;;;35.53;6.67;;;13.80;53.30;;;;;;5048125;28;20224;-92
2023/03/04 08:08:24;;;;;;;41.43;6.90;;;13.80;53.30;;;;;;5048869;28;20200;-91
2023/03/04 08:11:22;;;;;;;46.20;7.17;;;13.80;53.30;;;;;;5048788;28;20199;-90
2023/03/04 08:13:49;;;;;;;48.43;7.27;;;13.80;53.40;;;;;;4987195;28;20209;-92
2023/03/04 08:16:18;;;;;;;44.37;7.13;;;13.80;53.40;;;;;;5034850;28;20218;-92
2023/03/04 08:18:47;;;;;;;39.63;6.70;;;13.80;53.40;;;;;;5048149;28;20207;-91
2023/03/04 08:21:26;;;;;;;47.30;7.03;;;13.90;53.50;;;;;;5047912;28;20227;-90
2023/03/04 08:23:57;;;;;;;47.60;7.43;;;13.80;53.40;;;;;;5048133;28;20643;-92
2023/03/04 08:26:28;;;;;;;38.27;6.57;;;13.80;53.40;;;;;;5047935;28;20239;-93
2023/03/04 08:28:58;;;;;;;35.80;6.50;;;13.80;53.40;;;;;;5046386;28;20220;-94
2023/03/04 08:31:25;;;;;;;35.83;6.17;;;13.80;53.50;;;;;;5046806;28;20204;-91
2023/03/04 08:33:52;;;;;;;48.53;6.97;;;13.80;53.40;;;;;;5047295;28;20223;-90
2023/03/04 08:36:22;;;;;;;44.47;7.30;;;13.80;53.40;;;;;;5047747;28;20211;-90
2023/03/04 08:38:49;;;;;;;37.53;6.60;;;13.80;53.50;;;;;;5048071;28;20199;-91
2023/03/04 08:41:17;;;;;;;37.00;6.37;;;13.80;53.40;;;;;;5046756;28;20589;-90
2023/03/04 08:43:44;;;;;;;34.53;6.60;;;13.80;53.50;;;;;;5047407;28;20206;-91
2023/03/04 08:46:11;;;;;;;39.60;7.00;;;13.80;53.50;;;;;;5047512;28;20232;-90
2023/03/04 08:48:38;;;;;;;37.83;6.53;;;13.80;53.50;;;;;;5048484;28;20204;-91
2023/03/04 08:51:08;;;;;;;35.00;6.33;;;13.80;53.50;;;;;;5045480;28;20231;-90
2023/03/04 08:53:35;;;;;;;42.10;6.80;;;13.80;53.50;;;;;;5042457;28;20199;-91
2023/03/04 08:56:02;;;;;;;42.77;6.93;;;13.80;53.50;;;;;;5050441;28;20200;-90
2023/03/04 08:58:33;;;;;;;47.30;7.33;;;13.80;53.50;;;;;;5050668;28;20212;-90
2023/03/04 09:01:02;;;;;;;37.60;6.50;;;13.90;53.60;;;;;;5050931;28;20832;-90
2023/03/04 09:03:29;;;;;;;53.20;7.50;;;13.80;53.50;;;;;;5051543;28;20543;-90
2023/03/04 09:05:56;;;;;;;39.07;6.40;;;13.90;53.60;;;;;;5050800;28;20227;-90
2023/03/04 09:08:23;;;;;;;44.40;6.93;;;13.90;53.60;;;;;;5051308;28;20218;-91
2023/03/04 09:10:53;;;;;;;53.23;7.60;;;13.90;53.60;;;;;;5049262;28;20729;-90
2023/03/04 09:13:20;;;;;;;34.07;5.77;;;13.90;53.70;;;;;;5051431;28;20229;-91
2023/03/04 09:15:54;;;;;;;42.90;6.63;;;13.80;53.60;;;;;;5034106;28;20219;-90
2023/03/04 09:18:23;;;;;;;43.93;7.30;;;13.90;53.60;;;;;;5043237;28;20214;-89
2023/03/04 09:20:53;;;;;;;40.43;6.80;;;13.90;53.60;;;;;;5050656;28;20228;-90
2023/03/04 09:23:20;;;;;;;37.30;6.17;;;13.90;53.60;;;;;;5050821;28;20207;-89
2023/03/04 09:25:48;;;;;;;48.43;7.13;;;13.90;53.70;;;;;;5050264;28;20339;-89
2023/03/04 09:28:16;;;;;;;49.50;6.97;;;13.90;53.60;;;;;;5050913;28;20535;-92
2023/03/04 09:30:48;;;;;;;49.37;7.60;;;13.90;53.60;;;;;;5049579;28;20214;-91
2023/03/04 09:33:15;;;;;;;35.27;6.30;;;13.90;53.60;;;;;;5051497;28;20214;-90
2023/03/04 09:35:43;;;;;;;65.47;8.53;;;13.90;53.60;;;;;;5048037;28;20208;-91
2023/03/04 09:38:13;;;;;;;52.10;7.30;;;13.90;53.60;;;;;;5046939;28;20204;-92
2023/03/04 09:40:44;;;;;;;38.83;6.60;;;13.90;53.60;;;;;;5052282;28;20204;-91
2023/03/04 09:43:55;;;;;;;42.90;6.67;;;13.90;53.60;;;;;;5050156;28;20747;-93
2023/03/04 09:46:32;;;;;;;48.47;7.43;;;13.80;53.50;;;;;;5050910;28;20228;-91
2023/03/04 09:48:59;;;;;;;52.70;7.43;;;14.00;53.70;;;;;;5034745;28;20199;-94
2023/03/04 09:51:43;;;;;;;70.17;9.13;;;13.90;53.60;;;;;;5037519;28;20204;-90
2023/03/04 09:54:22;;;;;;;31.50;6.27;;;13.90;53.60;;;;;;5065403;28;20211;-91
2023/03/04 09:56:51;;;;;;;48.97;7.27;;;13.90;53.60;;;;;;5060656;28;20193;-92
2023/03/04 09:59:25;;;;;;;50.07;7.43;;;13.90;53.60;;;;;;5047054;28;20208;-92
2023/03/04 10:01:59;;;;;;;45.93;6.90;;;14.00;53.70;;;;;;5052514;28;20212;-90
2023/03/04 10:04:33;;;;;;;36.17;6.50;;;14.00;53.70;;;;;;5053912;28;20192;-94
2023/03/04 10:07:02;;;;;;;34.93;6.27;;;13.90;53.60;;;;;;5051687;28;20301;-94
2023/03/04 10:09:37;;;;;;;32.80;6.00;;;13.90;53.70;;;;;;5051515;28;20287;-92
2023/03/04 10:12:12;;;;;;;35.40;6.13;;;13.90;53.70;;;;;;5050216;28;20207;-90
2023/03/04 10:14:44;;;;;;;33.20;5.97;;;13.90;53.60;;;;;;5050727;28;20249;-90
2023/03/04 10:17:17;;;;;;;38.93;6.47;;;14.00;53.70;;;;;;5048405;28;20210;-90
2023/03/04 10:19:58;;;;;;;38.87;6.63;;;14.00;53.70;;;;;;5050260;28;20211;-90
2023/03/04 10:22:32;;;;;;;42.83;6.67;;;14.00;53.70;;;;;;5049605;28;20210;-89
2023/03/04 10:25:14;;;;;;;32.63;6.40;;;14.00;53.70;;;;;;5050497;28;20215;-90
2023/03/04 10:27:42;;;;;;;42.07;7.07;;;14.00;53.70;;;;;;5049676;28;20212;-90
2023/03/04 10:30:19;;;;;;;37.83;6.40;;;14.00;53.70;;;;;;5044210;28;20209;-90
2023/03/04 10:32:47;;;;;;;42.97;6.87;;;14.00;53.70;;;;;;5048200;28;20215;-89
2023/03/04 10:35:14;;;;;;;37.13;6.70;;;14.00;53.70;;;;;;5048723;28;20204;-89
2023/03/04 10:37:47;;;;;;;37.80;6.60;;;14.00;53.70;;;;;;5049199;28;20204;-90
2023/03/04 10:40:24;;;;;;;42.77;6.73;;;14.00;53.70;;;;;;5049374;28;20192;-89
2023/03/04 10:42:53;;;;;;;40.10;6.60;;;14.00;53.70;;;;;;5049420;28;20218;-89
2023/03/04 10:45:23;;;;;;;39.77;6.87;;;14.10;53.80;;;;;;5049837;28;20634;-90
2023/03/04 10:47:56;;;;;;;37.37;6.20;;;14.10;53.80;;;;;;5049315;28;20208;-90
2023/03/04 10:50:25;;;;;;;51.83;7.50;;;14.00;53.70;;;;;;5048553;28;20204;-89
2023/03/04 10:52:54;;;;;;;45.63;7.20;;;14.10;53.80;;;;;;5034509;28;20283;-90
2023/03/04 10:55:24;;;;;;;53.23;7.37;;;14.10;53.80;;;;;;5046959;28;20208;-89
2023/03/04 10:57:54;;;;;;;37.07;6.53;;;14.10;53.90;;;;;;5048734;28;20239;-90
2023/03/04 11:00:28;;;;;;;61.77;8.57;;;14.10;53.90;;;;;;5047807;28;20215;-90
2023/03/04 11:03:22;;;;;;;32.80;6.03;;;14.10;53.90;;;;;;5034595;28;20199;-90
2023/03/04 11:05:48;;;;;;;46.27;6.70;;;14.10;53.90;;;;;;5049277;28;20224;-90
2023/03/04 11:08:22;;;;;;;36.07;6.47;;;14.10;53.90;;;;;;5049207;28;20200;-90
2023/03/04 11:10:51;;;;;;;35.47;6.23;;;14.10;53.90;;;;;;5049542;28;20202;-94
2023/03/04 11:13:23;;;;;;;37.03;6.30;;;14.20;54.00;;;;;;5048185;28;20208;-91
2023/03/04 11:15:52;;;;;;;45.13;7.20;;;14.30;54.10;;;;;;5048714;28;20204;-91
2023/03/04 11:18:26;;;;;;;41.60;6.80;;;14.20;54.00;;;;;;5048658;28;20747;-90
2023/03/04 11:20:55;;;;;;;32.37;6.10;;;14.20;54.00;;;;;;5048126;28;20219;-90
2023/03/04 11:23:34;;;;;;;44.87;7.00;;;14.20;54.00;;;;;;5048328;28;20303;-90
2023/03/04 11:26:13;;;;;;;49.07;7.17;;;14.20;54.00;;;;;;5043666;28;20219;-90
2023/03/04 11:28:44;;;;;;;37.73;6.40;;;14.30;54.10;;;;;;5045372;28;20208;-89
2023/03/04 11:31:30;;;;;;;30.93;5.97;;;14.30;54.10;;;;;;5046604;28;20578;-91
2023/03/04 11:34:03;;;;;;;32.60;5.93;;;14.30;54.10;;;;;;5046349;28;20479;-94
2023/03/04 11:36:39;;;;;;;47.60;7.20;;;14.30;54.10;;;;;;5047579;28;20236;-91
2023/03/04 11:39:18;;;;;;;37.60;6.43;;;14.20;54.00;;;;;;5047566;28;20437;-90
2023/03/04 11:41:59;;;;;;;42.97;6.83;;;14.30;54.30;;;;;;5048643;28;20204;-91
2023/03/04 11:44:28;;;;;;;44.70;6.77;;;14.30;54.30;;;;;;5046398;28;20207;-92
2023/03/04 11:47:05;;;;;;;42.53;6.80;;;14.40;54.20;;;;;;5047402;28;20228;-90
2023/03/04 11:50:15;;;;;;;37.57;6.63;;;14.40;54.20;;;;;;5049124;28;20664;-91
2023/03/04 11:53:26;;;;;;;41.87;6.73;;;14.40;54.20;;;;;;5019504;28;20212;-91
2023/03/04 11:56:13;;;;;;;30.43;5.73;;;14.40;54.10;;;;;;5049071;28;20223;-91
2023/03/04 11:59:11;;;;;;;48.17;7.13;;;14.50;54.10;;;;;;5045292;28;20211;-92
2023/03/04 12:01:44;;;;;;;34.37;6.17;;;14.50;54.10;;;;;;5033932;28;20204;-90
2023/03/04 12:04:33;;;;;;;39.83;6.60;;;14.50;54.10;;;;;;5047727;28;20238;-91
2023/03/04 12:07:16;;;;;;;30.50;6.27;;;14.50;54.20;;;;;;5048459;28;20234;-90
2023/03/04 12:09:57;;;;;;;44.13;6.83;;;14.50;54.10;;;;;;5048172;28;20218;-91
2023/03/04 12:12:41;;;;;;;33.23;5.90;;;14.50;54.10;;;;;;5048056;28;20284;-93
2023/03/04 12:15:20;;;;;;;41.70;6.80;;;14.50;54.10;;;;;;5048556;28;20203;-93
2023/03/04 12:18:03;;;;;;;47.50;7.07;;;14.50;54.10;;;;;;5047217;28;20204;-90
2023/03/04 12:20:51;;;;;;;43.80;6.97;;;14.50;54.10;;;;;;5047484;28;20220;-91
2023/03/04 12:23:31;;;;;;;33.97;6.70;;;14.60;54.80;;;;;;5034568;28;20903;-91
2023/03/04 12:26:02;;;;;;;47.97;7.10;;;14.60;54.20;;;;;;5050850;28;20762;-91
2023/03/04 12:29:15;;;;;;;40.80;6.40;;;14.60;54.20;;;;;;5052250;28;20270;-94
2023/03/04 12:31:43;;;;;;;62.63;8.30;;;14.60;54.20;;;;;;5040980;28;20412;-94
2023/03/04 12:34:42;;;;;;;37.73;6.33;;;14.60;54.20;;;;;;5051035;28;20208;-92
2023/03/04 12:37:25;;;;;;;35.97;6.27;;;14.60;54.20;;;;;;5050526;28;20204;-93
2023/03/04 12:40:12;;;;;;;36.83;6.67;;;14.70;54.30;;;;;;5034918;28;20356;-93
2023/03/04 12:42:55;;;;;;;28.00;5.93;;;14.60;54.30;;;;;;5051604;28;20215;-91
2023/03/04 12:48:25;;;;;;;38.87;6.13;;;14.70;54.30;;;;;;5046741;28;20220;-93
2023/03/04 12:51:28;;;;;;;48.70;7.20;;;14.70;54.30;;;;;;5052230;28;20205;-94
2023/03/04 12:54:14;;;;;;;47.87;7.30;;;14.80;54.40;;;;;;5049002;28;20273;-95
2023/03/04 12:56:47;;;;;;;55.23;7.67;;;14.70;54.30;;;;;;5049966;28;20200;-91
2023/03/04 13:03:14;;;;;;;39.10;6.50;;;14.70;54.40;;;;;;4850722;29;20586;-92